Time;durP1;ratioP1;P1;durP2;ratioP2;P2;SDS_P1;SDS_P2;PMS_P1;PMS_P2;Temp;Humidity;BMP_temperature;BMP_pressure;BME280_temperature;BME280_humidity;BME280_pressure;Samples;Min_cycle;Max_cycle;Signal;HPM_P1;HPM_P2
2022/01/23 00:01:13;;;;;;;2.20;2.00;;;5.20;99.90;;;;;;5054087;28;20416;-70
2022/01/23 00:04:00;;;;;;;0.40;0.40;;;5.20;99.90;;;;;;5053851;28;20941;-70
2022/01/23 00:06:49;;;;;;;0.40;0.40;;;5.20;99.90;;;;;;5054434;28;20416;-70
2022/01/23 00:09:37;;;;;;;0.67;0.67;;;5.20;99.90;;;;;;5054955;28;20448;-70
2022/01/23 00:12:26;;;;;;;0.70;0.70;;;5.20;99.90;;;;;;5053939;28;20423;-70
2022/01/23 00:18:18;;;;;;;0.40;0.40;;;5.20;99.90;;;;;;5053695;28;20408;-70
2022/01/23 00:21:05;;;;;;;0.70;0.63;;;5.20;99.90;;;;;;5054202;28;20525;-71
2022/01/23 00:30:21;;;;;;;0.67;0.50;;;5.30;99.90;;;;;;5053255;28;20432;-71
2022/01/23 00:33:10;;;;;;;0.50;0.50;;;5.30;99.90;;;;;;5054315;28;20420;-70
2022/01/23 00:35:57;;;;;;;0.40;0.40;;;5.30;99.90;;;;;;5054337;28;20428;-72
2022/01/23 00:38:44;;;;;;;0.50;0.50;;;5.30;99.90;;;;;;5054316;28;20432;-69
2022/01/23 00:41:33;;;;;;;0.50;0.50;;;5.20;99.90;;;;;;5054712;28;20773;-69
2022/01/23 00:44:19;;;;;;;0.40;0.40;;;5.30;99.90;;;;;;5053983;28;20939;-70
2022/01/23 00:47:11;;;;;;;0.40;0.40;;;5.30;99.90;;;;;;5054130;28;20427;-70
2022/01/23 00:49:58;;;;;;;0.50;0.50;;;5.30;99.90;;;;;;5053156;28;20454;-70
2022/01/23 00:52:45;;;;;;;0.40;0.40;;;5.30;99.90;;;;;;5053582;28;21009;-70
2022/01/23 00:55:32;;;;;;;0.50;0.50;;;5.30;99.90;;;;;;5053559;28;20424;-70
2022/01/23 00:58:20;;;;;;;0.40;0.40;;;5.30;99.90;;;;;;5053308;28;20972;-70
2022/01/23 01:01:07;;;;;;;0.40;0.40;;;5.30;99.90;;;;;;5053177;28;20469;-70
2022/01/23 01:03:54;;;;;;;1.43;0.50;;;5.30;99.90;;;;;;5052884;28;20538;-70
2022/01/23 01:06:41;;;;;;;0.40;0.40;;;5.40;99.90;;;;;;5053523;28;20421;-71
2022/01/23 01:09:29;;;;;;;1.30;1.30;;;5.30;99.90;;;;;;5053221;28;20498;-71
2022/01/23 01:12:20;;;;;;;0.50;0.50;;;5.40;99.90;;;;;;5053846;28;20427;-70
2022/01/23 01:15:37;;;;;;;1.20;1.10;;;5.40;99.90;;;;;;5053457;28;20432;-71
2022/01/23 01:30:58;;;;;;;0.70;0.70;;;5.30;99.90;;;;;;5053153;28;20430;-70
2022/01/23 01:33:49;;;;;;;0.60;0.60;;;5.20;99.90;;;;;;5053255;28;20416;-69
2022/01/23 01:36:45;;;;;;;0.60;0.60;;;5.20;99.90;;;;;;5052817;28;20491;-71
2022/01/23 01:39:32;;;;;;;0.60;0.60;;;5.20;99.90;;;;;;5053021;28;20443;-71
2022/01/23 01:42:19;;;;;;;0.50;0.50;;;5.20;99.90;;;;;;5053641;28;20459;-71
2022/01/23 01:45:07;;;;;;;0.40;0.40;;;5.20;99.90;;;;;;5052664;28;20485;-70
2022/01/23 01:47:59;;;;;;;0.40;0.40;;;5.20;99.90;;;;;;5053648;28;20420;-70
2022/01/23 01:50:47;;;;;;;0.40;0.40;;;5.30;99.90;;;;;;5052009;28;20456;-71
2022/01/23 01:53:34;;;;;;;6.03;2.00;;;5.20;99.90;;;;;;5052893;28;20416;-70
2022/01/23 01:56:21;;;;;;;0.50;0.50;;;5.20;99.90;;;;;;5053360;28;20426;-70
2022/01/23 01:59:17;;;;;;;3.03;0.97;;;5.20;99.90;;;;;;5055084;28;20864;-71
2022/01/23 02:08:23;;;;;;;2.20;1.20;;;5.20;99.90;;;;;;5067379;28;20416;-72
2022/01/23 02:11:15;;;;;;;0.60;0.60;;;5.20;99.90;;;;;;5066385;28;20420;-71
2022/01/23 02:14:15;;;;;;;2.40;1.10;;;5.20;99.90;;;;;;5066120;28;20416;-70
2022/01/23 02:23:26;;;;;;;0.60;0.60;;;5.20;99.90;;;;;;5049004;28;20559;-70
2022/01/23 02:50:56;;;;;;;0.60;0.60;;;5.20;99.90;;;;;;5057922;28;20516;-70
2022/01/23 02:54:06;;;;;;;2.97;1.70;;;5.20;99.90;;;;;;5057686;28;20452;-70
2022/01/23 02:56:57;;;;;;;0.40;0.40;;;5.20;99.90;;;;;;5056544;28;20420;-70
2022/01/23 02:59:44;;;;;;;3.53;1.77;;;5.20;99.90;;;;;;5066565;28;20916;-71
2022/01/23 03:02:36;;;;;;;0.93;0.93;;;5.30;99.90;;;;;;5065986;28;20420;-70
2022/01/23 03:05:34;;;;;;;0.60;0.60;;;5.30;99.90;;;;;;5064851;28;20986;-72
2022/01/23 03:08:30;;;;;;;0.40;0.40;;;5.30;99.90;;;;;;5065696;28;20424;-70
2022/01/23 03:11:41;;;;;;;0.60;0.60;;;5.30;99.90;;;;;;5063993;28;20811;-71
2022/01/23 03:14:37;;;;;;;0.90;0.90;;;5.30;99.90;;;;;;5061540;28;20447;-70
2022/01/23 03:26:53;;;;;;;0.50;0.50;;;5.30;99.90;;;;;;5055931;28;20446;-71
2022/01/23 03:29:52;;;;;;;0.40;0.40;;;5.30;99.90;;;;;;5055524;28;20440;-72
2022/01/23 03:32:43;;;;;;;1.90;0.60;;;5.30;99.90;;;;;;5056104;28;20479;-70
2022/01/23 03:35:31;;;;;;;1.10;1.10;;;5.30;99.90;;;;;;5056079;28;20485;-70
2022/01/23 03:38:18;;;;;;;0.50;0.50;;;5.30;99.90;;;;;;5055613;28;20430;-70
2022/01/23 03:41:06;;;;;;;0.83;0.83;;;5.20;99.90;;;;;;5056791;28;20827;-69
2022/01/23 03:43:53;;;;;;;0.40;0.40;;;5.20;99.90;;;;;;5054835;28;20471;-69
2022/01/23 03:46:50;;;;;;;1.53;1.47;;;5.20;99.90;;;;;;5055783;28;20428;-70
2022/01/23 03:49:36;;;;;;;1.77;1.67;;;5.30;99.90;;;;;;5055249;28;20471;-70
2022/01/23 03:52:24;;;;;;;0.80;0.60;;;5.30;99.90;;;;;;5055531;28;20420;-70
2022/01/23 03:55:11;;;;;;;0.40;0.40;;;5.20;99.90;;;;;;5056547;28;20432;-71
2022/01/23 03:58:00;;;;;;;2.40;0.80;;;5.30;99.90;;;;;;5055512;28;20421;-70
2022/01/23 04:00:47;;;;;;;0.40;0.40;;;5.30;99.90;;;;;;5054988;28;20448;-69
2022/01/23 04:03:36;;;;;;;0.40;0.40;;;5.30;99.90;;;;;;5056771;28;20525;-72
2022/01/23 04:06:23;;;;;;;1.20;1.10;;;5.30;99.90;;;;;;5061040;28;20436;-70
2022/01/23 04:09:10;;;;;;;0.63;0.63;;;5.30;99.90;;;;;;5060023;28;20455;-69
2022/01/23 04:11:58;;;;;;;0.50;0.50;;;5.30;99.90;;;;;;5059978;28;20440;-72
2022/01/23 04:14:52;;;;;;;0.80;0.80;;;5.30;99.90;;;;;;5059747;28;20423;-69
2022/01/23 04:20:52;;;;;;;0.40;0.40;;;5.40;99.90;;;;;;5054752;28;20465;-71
2022/01/23 04:33:17;;;;;;;0.80;0.80;;;5.30;99.90;;;;;;5053884;28;20432;-70
2022/01/23 04:45:27;;;;;;;0.40;0.40;;;5.30;99.90;;;;;;5053888;28;20416;-71
2022/01/23 04:49:08;;;;;;;0.43;0.43;;;5.30;99.90;;;;;;5053916;28;21025;-70
2022/01/23 05:01:04;;;;;;;0.40;0.40;;;5.30;99.90;;;;;;5054069;28;20440;-70
2022/01/23 05:06:59;;;;;;;0.60;0.60;;;5.40;99.90;;;;;;5053728;28;20939;-70
2022/01/23 05:09:49;;;;;;;0.40;0.40;;;5.40;99.90;;;;;;5054652;28;20598;-71
2022/01/23 05:12:36;;;;;;;0.40;0.40;;;5.30;99.90;;;;;;5056978;28;20424;-70
2022/01/23 05:15:23;;;;;;;0.40;0.40;;;5.30;99.90;;;;;;5055132;28;20424;-71
2022/01/23 05:18:11;;;;;;;0.40;0.40;;;5.30;99.90;;;;;;5055436;28;20583;-70
2022/01/23 05:21:09;;;;;;;0.40;0.40;;;5.30;99.90;;;;;;5056985;28;20444;-71
2022/01/23 05:23:56;;;;;;;0.90;0.90;;;5.40;99.90;;;;;;5062900;28;20468;-70
2022/01/23 05:26:45;;;;;;;1.90;1.10;;;5.30;99.90;;;;;;5066140;28;20421;-71
2022/01/23 05:29:32;;;;;;;0.40;0.40;;;5.10;99.90;;;;;;5062921;28;20472;-71
2022/01/23 05:32:20;;;;;;;0.40;0.40;;;5.20;99.90;;;;;;5065770;28;20420;-71
2022/01/23 05:35:10;;;;;;;0.70;0.70;;;5.20;99.90;;;;;;5067356;28;20428;-72
2022/01/23 05:37:57;;;;;;;0.40;0.40;;;5.20;99.90;;;;;;5068060;28;20431;-70
2022/01/23 05:40:44;;;;;;;0.40;0.40;;;5.20;99.90;;;;;;5067277;28;20466;-71
2022/01/23 05:43:31;;;;;;;6.13;0.70;;;5.20;99.90;;;;;;5066895;28;20476;-71
2022/01/23 05:46:18;;;;;;;0.40;0.40;;;5.30;99.90;;;;;;5066386;28;20428;-71
2022/01/23 05:49:06;;;;;;;0.40;0.40;;;5.20;99.90;;;;;;5062500;28;20480;-70
2022/01/23 05:51:54;;;;;;;0.40;0.40;;;5.20;99.90;;;;;;5063288;28;20429;-70
2022/01/23 05:54:41;;;;;;;0.40;0.40;;;5.20;99.90;;;;;;5063159;28;20424;-70
2022/01/23 05:57:28;;;;;;;0.73;0.73;;;5.10;99.90;;;;;;5062950;28;20459;-71
2022/01/23 06:00:16;;;;;;;2.90;1.73;;;5.20;99.90;;;;;;5067751;28;20459;-70
2022/01/23 06:03:03;;;;;;;0.40;0.40;;;5.20;99.90;;;;;;5065214;28;20432;-71
2022/01/23 06:05:50;;;;;;;0.77;0.77;;;5.20;99.90;;;;;;5060060;28;20424;-70
2022/01/23 06:08:38;;;;;;;0.47;0.47;;;5.30;99.90;;;;;;5063667;28;20428;-70
2022/01/23 06:11:25;;;;;;;0.50;0.50;;;5.20;99.90;;;;;;5060512;28;20420;-70
2022/01/23 06:14:12;;;;;;;0.40;0.40;;;5.30;99.90;;;;;;5057058;28;20435;-71
2022/01/23 06:16:59;;;;;;;1.53;0.80;;;5.20;99.90;;;;;;5057732;28;20451;-71
2022/01/23 06:19:46;;;;;;;0.40;0.40;;;5.30;99.90;;;;;;5056906;28;21010;-70
2022/01/23 06:22:33;;;;;;;0.50;0.50;;;5.30;99.90;;;;;;5057024;28;20424;-71
2022/01/23 06:25:29;;;;;;;0.93;0.93;;;5.30;99.90;;;;;;5057106;28;20467;-70
2022/01/23 06:28:34;;;;;;;0.40;0.40;;;5.20;99.90;;;;;;5056410;28;20564;-70
2022/01/23 06:31:21;;;;;;;0.40;0.40;;;5.20;99.90;;;;;;5056083;28;20521;-70
2022/01/23 06:34:08;;;;;;;0.40;0.40;;;5.20;99.90;;;;;;5057217;28;20582;-70
2022/01/23 06:36:56;;;;;;;1.33;1.23;;;5.30;99.90;;;;;;5056170;28;20920;-71
2022/01/23 06:39:43;;;;;;;0.40;0.40;;;5.30;99.90;;;;;;5055237;28;20447;-70
2022/01/23 06:42:31;;;;;;;0.60;0.60;;;5.40;99.90;;;;;;5055845;28;20428;-71
2022/01/23 06:45:18;;;;;;;0.40;0.40;;;5.20;99.90;;;;;;5055892;28;20468;-70
2022/01/23 06:48:05;;;;;;;0.47;0.47;;;5.30;99.90;;;;;;5056491;28;20428;-69
2022/01/23 06:50:52;;;;;;;0.87;0.80;;;5.30;99.90;;;;;;5055158;28;20463;-70
2022/01/23 06:53:39;;;;;;;3.40;1.60;;;5.20;99.90;;;;;;5054974;28;20424;-70
2022/01/23 06:56:26;;;;;;;0.97;0.80;;;5.20;99.90;;;;;;5055115;28;20427;-71
2022/01/23 06:59:14;;;;;;;0.40;0.40;;;5.20;99.90;;;;;;5054628;28;20975;-69
2022/01/23 07:02:03;;;;;;;1.33;0.80;;;5.20;99.90;;;;;;5055895;28;20801;-70
2022/01/23 07:04:50;;;;;;;1.47;1.37;;;5.20;99.90;;;;;;5055300;28;20464;-70
2022/01/23 07:07:36;;;;;;;0.40;0.40;;;5.20;99.90;;;;;;5061229;28;20431;-69
2022/01/23 07:10:25;;;;;;;4.33;1.60;;;5.20;99.90;;;;;;5073589;28;20444;-70
2022/01/23 07:13:11;;;;;;;0.50;0.50;;;5.20;99.90;;;;;;5072063;28;20455;-70
2022/01/23 07:16:02;;;;;;;0.40;0.40;;;5.20;99.90;;;;;;5071724;28;20424;-70
2022/01/23 07:18:49;;;;;;;0.80;0.80;;;5.30;99.90;;;;;;5072702;28;20428;-70
2022/01/23 07:21:36;;;;;;;0.50;0.50;;;5.20;99.90;;;;;;5072202;28;20428;-70
2022/01/23 07:24:23;;;;;;;1.20;0.80;;;5.20;99.90;;;;;;5072459;28;20464;-72
2022/01/23 07:27:16;;;;;;;0.50;0.50;;;5.30;99.90;;;;;;5072825;28;20428;-71
2022/01/23 07:30:06;;;;;;;1.10;1.00;;;5.20;99.90;;;;;;5071715;28;21007;-69
2022/01/23 07:32:54;;;;;;;0.80;0.80;;;5.30;99.90;;;;;;5074002;28;20424;-70
2022/01/23 07:35:41;;;;;;;0.83;0.83;;;5.30;99.90;;;;;;5074128;28;20459;-70
2022/01/23 07:38:29;;;;;;;0.70;0.70;;;5.20;99.90;;;;;;5073237;28;20439;-70
2022/01/23 07:41:15;;;;;;;0.40;0.40;;;5.20;99.90;;;;;;5055822;28;20432;-70
2022/01/23 07:44:04;;;;;;;0.80;0.80;;;5.20;99.90;;;;;;5065795;28;20475;-71
2022/01/23 07:46:52;;;;;;;0.40;0.40;;;5.30;99.90;;;;;;5067296;28;20753;-70
2022/01/23 07:49:40;;;;;;;0.70;0.70;;;5.30;99.90;;;;;;5065900;28;20551;-72
2022/01/23 07:52:30;;;;;;;0.40;0.40;;;5.40;99.90;;;;;;5064766;28;20425;-71
2022/01/23 07:55:17;;;;;;;0.40;0.40;;;5.40;99.90;;;;;;5065256;28;20479;-72
2022/01/23 07:58:12;;;;;;;0.40;0.40;;;5.40;99.90;;;;;;5067380;28;20851;-72
2022/01/23 08:00:59;;;;;;;0.70;0.70;;;5.50;99.90;;;;;;5065924;28;20454;-71
2022/01/23 08:03:46;;;;;;;2.30;0.80;;;5.50;99.90;;;;;;5066252;28;20432;-72
2022/01/23 08:06:40;;;;;;;0.93;0.93;;;5.50;99.90;;;;;;5067862;28;20424;-71
2022/01/23 08:09:27;;;;;;;1.03;0.60;;;5.50;99.90;;;;;;5066273;28;20940;-71
2022/01/23 08:12:14;;;;;;;0.97;0.90;;;5.60;99.90;;;;;;5063340;28;20432;-72
2022/01/23 08:15:04;;;;;;;0.40;0.40;;;5.60;99.90;;;;;;5055011;28;20417;-71
2022/01/23 08:17:51;;;;;;;1.37;1.03;;;5.70;99.90;;;;;;5056070;28;20420;-71
2022/01/23 08:20:38;;;;;;;0.40;0.40;;;5.60;99.90;;;;;;5054752;28;20444;-71
2022/01/23 08:23:27;;;;;;;2.10;0.50;;;5.70;99.90;;;;;;5053716;28;20428;-71
2022/01/23 08:26:14;;;;;;;0.67;0.67;;;5.80;99.90;;;;;;5053767;28;20412;-71
2022/01/23 08:29:01;;;;;;;0.40;0.40;;;5.90;99.90;;;;;;5053410;28;20924;-70
2022/01/23 08:31:48;;;;;;;0.63;0.63;;;6.00;99.90;;;;;;5054067;28;20482;-71
2022/01/23 08:34:36;;;;;;;0.70;0.70;;;6.10;99.90;;;;;;5053895;28;20679;-70
2022/01/23 08:37:22;;;;;;;0.40;0.40;;;6.30;99.90;;;;;;5053745;28;20428;-70
2022/01/23 08:40:19;;;;;;;0.50;0.50;;;6.30;99.90;;;;;;5052957;28;20529;-73
2022/01/23 08:43:06;;;;;;;0.80;0.80;;;6.40;99.90;;;;;;5054019;28;20424;-70
2022/01/23 08:45:53;;;;;;;0.50;0.50;;;6.30;99.90;;;;;;5053754;28;20991;-71
2022/01/23 08:48:41;;;;;;;0.80;0.80;;;6.30;99.90;;;;;;5053748;28;20970;-71
2022/01/23 08:51:28;;;;;;;0.50;0.50;;;6.30;99.90;;;;;;5055554;28;20467;-72
2022/01/23 08:54:15;;;;;;;1.83;0.60;;;6.30;99.90;;;;;;5055047;28;20427;-71
2022/01/23 08:57:04;;;;;;;0.40;0.40;;;6.20;99.90;;;;;;5053361;28;20416;-71
2022/01/23 08:59:52;;;;;;;0.80;0.80;;;6.30;99.90;;;;;;5053190;28;20486;-71
2022/01/23 09:02:39;;;;;;;0.57;0.50;;;6.30;99.90;;;;;;5052990;28;20427;-73
2022/01/23 09:05:27;;;;;;;1.90;1.33;;;6.20;99.90;;;;;;5053471;28;20458;-71
2022/01/23 09:08:13;;;;;;;0.40;0.40;;;6.20;99.90;;;;;;5053269;28;20433;-71
2022/01/23 09:11:07;;;;;;;0.40;0.40;;;6.20;99.90;;;;;;5053193;28;20448;-71
2022/01/23 09:14:06;;;;;;;0.40;0.40;;;6.20;99.90;;;;;;5056057;28;20424;-72
2022/01/23 09:16:54;;;;;;;0.40;0.40;;;6.20;99.90;;;;;;5055930;28;20485;-72
2022/01/23 09:19:41;;;;;;;0.40;0.40;;;6.20;99.90;;;;;;5058505;28;20444;-71
2022/01/23 09:22:30;;;;;;;0.40;0.40;;;6.20;99.90;;;;;;5055827;28;20498;-72
2022/01/23 09:25:17;;;;;;;0.93;0.93;;;6.30;99.90;;;;;;5053119;28;20456;-72
2022/01/23 09:28:07;;;;;;;0.40;0.40;;;6.30;99.90;;;;;;5053255;28;20420;-71
2022/01/23 09:30:55;;;;;;;0.40;0.40;;;6.30;99.90;;;;;;5051426;28;20511;-72
2022/01/23 09:33:42;;;;;;;0.40;0.40;;;6.20;99.90;;;;;;5054300;28;20426;-73
2022/01/23 09:36:29;;;;;;;0.50;0.50;;;6.30;99.90;;;;;;5053658;28;20424;-71
2022/01/23 09:39:17;;;;;;;0.40;0.40;;;6.30;99.90;;;;;;5053050;28;20514;-72
2022/01/23 09:42:10;;;;;;;0.50;0.50;;;6.50;99.90;;;;;;5052725;28;20454;-73
2022/01/23 09:44:59;;;;;;;0.40;0.40;;;6.40;99.90;;;;;;5053057;28;20560;-70
2022/01/23 09:47:47;;;;;;;0.43;0.43;;;6.30;99.90;;;;;;5052274;28;20423;-71
2022/01/23 09:50:35;;;;;;;0.80;0.50;;;6.40;99.90;;;;;;5052973;28;20518;-71
2022/01/23 09:53:23;;;;;;;0.50;0.50;;;6.30;99.90;;;;;;5053901;28;20787;-71
2022/01/23 09:56:13;;;;;;;0.40;0.40;;;6.30;99.90;;;;;;5052654;28;20438;-70
2022/01/23 09:59:00;;;;;;;0.50;0.50;;;6.30;99.90;;;;;;5052553;28;20504;-70
2022/01/23 10:01:53;;;;;;;1.17;0.60;;;6.30;99.90;;;;;;5053022;28;20424;-69
2022/01/23 10:04:41;;;;;;;0.70;0.70;;;6.30;99.90;;;;;;5052117;28;20842;-70
2022/01/23 10:07:29;;;;;;;0.40;0.40;;;6.40;99.90;;;;;;5051843;28;20425;-71
2022/01/23 10:10:20;;;;;;;0.40;0.40;;;6.50;99.90;;;;;;5052328;28;20444;-71
2022/01/23 10:13:08;;;;;;;0.87;0.73;;;6.50;99.90;;;;;;5052230;28;20826;-70
2022/01/23 10:15:55;;;;;;;0.80;0.80;;;6.60;99.90;;;;;;5051911;28;20427;-71
2022/01/23 10:18:43;;;;;;;0.50;0.50;;;6.60;99.90;;;;;;5051948;28;20447;-72
2022/01/23 10:21:35;;;;;;;1.80;1.70;;;6.60;99.90;;;;;;5051801;28;20436;-72
2022/01/23 10:24:22;;;;;;;0.50;0.50;;;6.60;99.90;;;;;;5051558;28;20521;-71
2022/01/23 10:27:09;;;;;;;0.40;0.40;;;6.60;99.90;;;;;;5051365;28;20431;-71
2022/01/23 10:29:56;;;;;;;0.40;0.40;;;6.50;99.90;;;;;;5051688;28;20866;-72
2022/01/23 10:32:56;;;;;;;0.70;0.70;;;6.50;99.90;;;;;;5051549;28;20489;-70
2022/01/23 10:35:58;;;;;;;1.37;0.60;;;6.70;99.90;;;;;;5051670;28;21136;-71
2022/01/23 10:38:54;;;;;;;0.70;0.70;;;6.70;99.90;;;;;;5050980;28;20924;-71
2022/01/23 10:41:49;;;;;;;0.40;0.40;;;7.50;99.90;;;;;;5051187;28;20419;-71
2022/01/23 10:48:01;;;;;;;0.60;0.60;;;7.20;99.90;;;;;;5009363;28;20418;-70
2022/01/23 10:50:48;;;;;;;0.40;0.40;;;7.10;99.90;;;;;;5009264;28;20454;-70
2022/01/23 10:54:01;;;;;;;0.70;0.70;;;6.90;99.90;;;;;;5049186;28;20960;-71
2022/01/23 10:57:02;;;;;;;0.40;0.40;;;6.70;99.90;;;;;;5055398;28;20816;-70
2022/01/23 10:59:51;;;;;;;0.40;0.40;;;6.80;99.90;;;;;;5056028;28;20521;-71
2022/01/23 11:02:40;;;;;;;0.40;0.40;;;6.90;99.90;;;;;;5054597;28;20497;-71
2022/01/23 11:05:34;;;;;;;0.40;0.40;;;7.00;99.90;;;;;;5055110;28;20456;-70
2022/01/23 11:08:23;;;;;;;0.40;0.40;;;7.10;99.90;;;;;;5054389;28;20941;-71
2022/01/23 11:11:11;;;;;;;0.40;0.40;;;7.20;99.90;;;;;;5054609;28;20420;-72
2022/01/23 11:20:09;;;;;;;0.40;0.40;;;7.50;99.90;;;;;;5054028;28;20464;-71
2022/01/23 11:23:02;;;;;;;0.40;0.40;;;7.60;99.90;;;;;;5054173;28;20420;-70
2022/01/23 11:26:08;;;;;;;1.13;1.03;;;7.50;99.90;;;;;;5035249;28;20460;-71
2022/01/23 11:28:56;;;;;;;0.80;0.60;;;7.40;99.90;;;;;;5035409;28;20610;-71
2022/01/23 11:31:44;;;;;;;0.40;0.40;;;7.30;99.90;;;;;;5033782;28;20429;-70
2022/01/23 11:34:32;;;;;;;0.40;0.40;;;7.20;99.90;;;;;;5034598;28;20425;-71
2022/01/23 11:37:19;;;;;;;0.40;0.40;;;7.20;99.90;;;;;;5033169;28;20417;-72
2022/01/23 11:40:22;;;;;;;0.40;0.40;;;7.20;99.90;;;;;;5033400;28;20802;-71
2022/01/23 11:55:35;;;;;;;0.43;0.43;;;7.70;99.90;;;;;;5005354;28;20421;-72
2022/01/23 11:58:36;;;;;;;0.40;0.40;;;7.70;99.90;;;;;;5032856;28;20491;-71
2022/01/23 12:01:26;;;;;;;0.50;0.50;;;7.80;99.90;;;;;;5033870;28;20457;-72
2022/01/23 12:04:19;;;;;;;0.40;0.40;;;7.80;99.90;;;;;;5031774;28;20421;-71
2022/01/23 12:07:20;;;;;;;0.40;0.40;;;7.80;99.90;;;;;;5032383;28;20805;-71
2022/01/23 12:10:15;;;;;;;0.47;0.47;;;7.80;99.90;;;;;;5032880;28;20540;-71
2022/01/23 12:13:54;;;;;;;0.40;0.40;;;7.80;99.90;;;;;;5034039;28;20433;-71
2022/01/23 12:16:51;;;;;;;0.40;0.40;;;7.60;99.90;;;;;;5034345;28;20417;-72
2022/01/23 12:19:47;;;;;;;0.50;0.50;;;7.60;99.90;;;;;;5033554;28;20977;-70
2022/01/23 12:22:39;;;;;;;0.80;0.57;;;7.50;99.90;;;;;;5032975;28;20934;-71
2022/01/23 12:25:30;;;;;;;0.47;0.47;;;7.40;99.90;;;;;;5050878;28;21002;-71
2022/01/23 12:28:25;;;;;;;0.40;0.40;;;7.30;99.90;;;;;;5053654;28;20470;-71
2022/01/23 12:31:22;;;;;;;0.60;0.60;;;7.30;99.90;;;;;;5052733;28;20428;-71
2022/01/23 12:34:10;;;;;;;0.47;0.47;;;7.40;99.90;;;;;;5053312;28;20431;-70
2022/01/23 12:36:57;;;;;;;1.13;1.13;;;7.30;99.90;;;;;;5053236;28;20776;-70
2022/01/23 12:39:46;;;;;;;0.40;0.40;;;7.40;99.90;;;;;;5053924;28;20456;-71
2022/01/23 12:43:04;;;;;;;0.40;0.40;;;7.40;99.90;;;;;;5052991;28;20428;-71
2022/01/23 12:45:55;;;;;;;0.50;0.50;;;7.60;99.90;;;;;;5053871;28;20478;-71
2022/01/23 12:48:48;;;;;;;0.50;0.50;;;7.70;99.90;;;;;;5052657;28;20428;-71
2022/01/23 12:51:41;;;;;;;0.40;0.40;;;7.90;99.90;;;;;;5052643;28;20941;-71
2022/01/23 12:54:31;;;;;;;0.40;0.40;;;7.90;99.90;;;;;;5052776;28;20431;-71
2022/01/23 12:57:22;;;;;;;0.87;0.60;;;7.90;99.90;;;;;;5053039;28;20415;-70
2022/01/23 13:00:15;;;;;;;0.40;0.40;;;7.70;99.90;;;;;;5052125;28;20440;-71
2022/01/23 13:03:03;;;;;;;0.70;0.70;;;7.60;99.90;;;;;;5052803;28;20832;-70
2022/01/23 13:05:50;;;;;;;0.40;0.40;;;7.50;99.90;;;;;;5052925;28;20577;-70
2022/01/23 13:08:48;;;;;;;0.43;0.43;;;7.50;99.90;;;;;;5052830;28;20424;-71
2022/01/23 13:11:54;;;;;;;0.40;0.40;;;7.50;99.90;;;;;;5052265;28;20420;-71
2022/01/23 13:14:49;;;;;;;1.73;0.80;;;7.70;99.90;;;;;;5053158;28;20927;-71
2022/01/23 13:17:46;;;;;;;0.40;0.40;;;7.70;99.90;;;;;;5052864;28;20425;-71
2022/01/23 13:27:26;;;;;;;0.40;0.40;;;7.50;99.90;;;;;;5052871;28;20467;-72
2022/01/23 13:30:16;;;;;;;0.80;0.80;;;7.40;99.90;;;;;;5053398;28;20993;-71
2022/01/23 13:33:09;;;;;;;0.40;0.40;;;7.20;99.90;;;;;;5053760;28;20428;-71
2022/01/23 13:35:56;;;;;;;0.40;0.40;;;7.20;99.90;;;;;;5054906;28;20429;-71
2022/01/23 13:38:43;;;;;;;0.50;0.50;;;7.20;99.90;;;;;;5054940;28;20955;-71
2022/01/23 13:41:45;;;;;;;1.00;1.00;;;7.30;99.90;;;;;;5057647;28;20427;-71
2022/01/23 13:48:10;;;;;;;0.40;0.40;;;7.40;99.90;;;;;;5057487;28;20420;-72
2022/01/23 13:51:18;;;;;;;0.53;0.53;;;7.50;99.90;;;;;;5054241;28;20452;-71
2022/01/23 13:57:48;;;;;;;0.40;0.40;;;7.60;99.90;;;;;;5051942;28;20440;-70
2022/01/23 14:00:35;;;;;;;0.40;0.40;;;7.70;99.90;;;;;;5051704;28;20444;-71
2022/01/23 14:03:22;;;;;;;0.50;0.50;;;7.70;99.90;;;;;;5052408;28;20428;-70
2022/01/23 14:06:09;;;;;;;0.40;0.40;;;7.50;99.90;;;;;;5052000;28;20494;-70
2022/01/23 14:09:06;;;;;;;0.40;0.40;;;7.60;99.90;;;;;;5052187;28;20416;-69
2022/01/23 14:11:54;;;;;;;0.40;0.40;;;7.50;99.90;;;;;;5052153;28;20448;-71
2022/01/23 14:14:57;;;;;;;0.40;0.40;;;7.50;99.90;;;;;;5052120;28;20432;-72
2022/01/23 14:17:56;;;;;;;0.40;0.40;;;7.50;99.90;;;;;;5052048;28;20494;-73
2022/01/23 14:20:54;;;;;;;0.40;0.40;;;7.40;99.90;;;;;;5051590;28;20971;-72
2022/01/23 14:23:41;;;;;;;0.40;0.40;;;7.30;99.90;;;;;;5051564;28;20419;-71
2022/01/23 14:26:28;;;;;;;0.57;0.57;;;7.30;99.90;;;;;;5051459;28;20456;-72
2022/01/23 14:29:16;;;;;;;0.40;0.40;;;7.30;99.90;;;;;;5054729;28;20501;-72
2022/01/23 14:32:06;;;;;;;0.40;0.40;;;7.30;99.90;;;;;;5055642;28;20428;-71
2022/01/23 14:35:04;;;;;;;0.60;0.60;;;7.20;99.90;;;;;;5055678;28;21010;-71
2022/01/23 14:37:52;;;;;;;0.40;0.40;;;7.10;99.90;;;;;;5054995;28;20424;-71
2022/01/23 14:40:39;;;;;;;0.47;0.47;;;7.10;99.90;;;;;;5054364;28;20533;-71
2022/01/23 14:43:36;;;;;;;0.40;0.40;;;7.00;99.90;;;;;;5055506;28;20447;-71
2022/01/23 14:46:23;;;;;;;0.60;0.60;;;7.00;99.90;;;;;;5054832;28;20471;-71
2022/01/23 14:49:21;;;;;;;0.60;0.60;;;7.00;99.90;;;;;;5054761;28;20456;-71
2022/01/23 14:52:13;;;;;;;0.40;0.40;;;7.00;99.90;;;;;;5055779;28;20443;-71
2022/01/23 14:55:01;;;;;;;0.40;0.40;;;7.10;99.90;;;;;;5054730;28;20424;-69
2022/01/23 14:57:49;;;;;;;0.40;0.40;;;7.10;99.90;;;;;;5054746;28;20416;-72
2022/01/23 15:00:36;;;;;;;0.40;0.40;;;7.10;99.90;;;;;;5054887;28;20448;-71
2022/01/23 15:03:24;;;;;;;0.40;0.40;;;7.10;99.90;;;;;;5055093;28;20439;-71
2022/01/23 15:06:13;;;;;;;0.40;0.40;;;7.10;99.90;;;;;;5055253;28;20983;-71
2022/01/23 15:09:05;;;;;;;0.40;0.40;;;7.00;99.90;;;;;;5055824;28;20831;-71
2022/01/23 15:11:53;;;;;;;0.40;0.40;;;7.00;99.90;;;;;;5056035;28;20427;-71
2022/01/23 15:14:40;;;;;;;0.40;0.40;;;7.00;99.90;;;;;;5065021;28;20455;-71
2022/01/23 15:17:27;;;;;;;0.40;0.40;;;7.00;99.90;;;;;;5064917;28;20420;-70
2022/01/23 15:20:14;;;;;;;0.80;0.60;;;7.00;99.90;;;;;;5064660;28;20813;-71
2022/01/23 15:23:03;;;;;;;0.40;0.40;;;6.90;99.90;;;;;;5065832;28;20427;-71
2022/01/23 15:25:50;;;;;;;0.40;0.40;;;6.90;99.90;;;;;;5046452;28;20425;-71
2022/01/23 15:28:37;;;;;;;0.60;0.60;;;6.80;99.90;;;;;;5044686;28;20447;-72
2022/01/23 15:31:24;;;;;;;0.40;0.40;;;6.80;99.90;;;;;;5043655;28;20440;-70
2022/01/23 15:34:11;;;;;;;0.40;0.40;;;6.70;99.90;;;;;;5043139;28;20475;-71
2022/01/23 15:36:59;;;;;;;0.40;0.40;;;6.70;99.90;;;;;;5041582;28;20429;-72
2022/01/23 15:39:48;;;;;;;0.40;0.40;;;6.70;99.90;;;;;;5038315;28;20437;-73
2022/01/23 15:42:35;;;;;;;0.40;0.40;;;6.70;99.90;;;;;;5038060;28;20429;-71
2022/01/23 15:45:25;;;;;;;0.50;0.50;;;6.80;99.90;;;;;;5034539;28;20417;-71
2022/01/23 15:48:12;;;;;;;0.40;0.40;;;6.70;99.90;;;;;;5034623;28;20471;-71
2022/01/23 15:50:59;;;;;;;0.50;0.50;;;6.70;99.90;;;;;;5033983;28;20865;-71
2022/01/23 15:53:45;;;;;;;0.40;0.40;;;6.60;99.90;;;;;;5034299;28;20460;-69
2022/01/23 15:56:34;;;;;;;0.40;0.40;;;6.70;99.90;;;;;;5034194;28;20455;-72
2022/01/23 15:59:21;;;;;;;0.60;0.60;;;6.70;99.90;;;;;;5033997;28;20491;-71
2022/01/23 16:02:09;;;;;;;0.57;0.57;;;6.60;99.90;;;;;;5033760;28;20433;-71
2022/01/23 16:04:57;;;;;;;0.40;0.40;;;6.60;99.90;;;;;;5034119;28;20471;-71
2022/01/23 16:07:44;;;;;;;0.50;0.50;;;6.70;99.90;;;;;;5033895;28;20567;-71
2022/01/23 16:10:31;;;;;;;0.60;0.60;;;6.70;99.90;;;;;;5033524;28;20452;-71
2022/01/23 16:13:19;;;;;;;0.40;0.40;;;6.60;99.90;;;;;;5035191;28;20424;-71
2022/01/23 16:16:06;;;;;;;0.40;0.40;;;6.60;99.90;;;;;;5034781;28;20478;-71
2022/01/23 16:18:53;;;;;;;0.40;0.40;;;6.60;99.90;;;;;;5033890;28;20457;-72
2022/01/23 16:21:41;;;;;;;0.50;0.50;;;6.60;99.90;;;;;;5034160;28;20806;-71
2022/01/23 16:24:28;;;;;;;0.40;0.40;;;6.70;99.90;;;;;;5042836;28;20429;-72
2022/01/23 16:27:15;;;;;;;0.40;0.40;;;6.70;99.90;;;;;;5053212;28;20471;-71
2022/01/23 16:30:04;;;;;;;0.40;0.40;;;6.60;99.90;;;;;;5052971;28;20447;-71
2022/01/23 16:32:52;;;;;;;0.40;0.40;;;6.60;99.90;;;;;;5052588;28;20439;-70
2022/01/23 16:35:39;;;;;;;0.40;0.40;;;6.60;99.90;;;;;;5053074;28;20480;-71
2022/01/23 16:38:26;;;;;;;0.40;0.40;;;6.70;99.90;;;;;;5053184;28;20424;-70
2022/01/23 16:41:12;;;;;;;0.40;0.40;;;6.70;99.90;;;;;;5053198;28;20428;-71
2022/01/23 16:43:59;;;;;;;0.40;0.40;;;6.70;99.90;;;;;;5053233;28;20474;-70
2022/01/23 16:46:48;;;;;;;0.40;0.40;;;6.70;99.90;;;;;;5052791;28;20467;-72
2022/01/23 16:49:34;;;;;;;0.40;0.40;;;6.70;99.90;;;;;;5052219;28;20475;-71
2022/01/23 16:52:21;;;;;;;0.40;0.40;;;6.80;99.90;;;;;;5052713;28;20428;-72
2022/01/23 16:55:09;;;;;;;0.40;0.40;;;6.70;99.90;;;;;;5053310;28;20420;-71
2022/01/23 16:57:56;;;;;;;0.40;0.40;;;6.60;99.90;;;;;;5052376;28;20507;-71
2022/01/23 17:00:43;;;;;;;0.40;0.40;;;6.50;99.90;;;;;;5052461;28;20444;-71
2022/01/23 17:03:31;;;;;;;0.40;0.40;;;6.40;99.90;;;;;;5052017;28;20474;-70
2022/01/23 17:06:18;;;;;;;0.40;0.40;;;6.30;99.90;;;;;;5051724;28;20941;-71
2022/01/23 17:09:06;;;;;;;0.40;0.40;;;6.20;99.90;;;;;;5052248;28;20494;-72
2022/01/23 17:11:52;;;;;;;0.40;0.40;;;6.20;99.90;;;;;;5052050;28;20807;-70
2022/01/23 17:14:39;;;;;;;0.40;0.40;;;6.10;99.90;;;;;;5052068;28;20435;-72
2022/01/23 17:17:26;;;;;;;0.40;0.40;;;6.10;99.90;;;;;;5052505;28;20856;-71